Time;durP1;ratioP1;P1;durP2;ratioP2;P2;SDS_P1;SDS_P2;PMS_P1;PMS_P2;Temp;Humidity;BMP_temperature;BMP_pressure;BME280_temperature;BME280_humidity;BME280_pressure;Samples;Min_cycle;Max_cycle;Signal;HPM_P1;HPM_P2
2022/02/18 00:00:10;;;;;;;;;;;;;;;;;;991423;29;1093;-42
2022/02/18 00:00:48;;;;;;;;;;;;;;;;;;991654;29;885;-41
2022/02/18 00:01:18;;;;;;;;;;;;;;;;;;993465;29;822;-42
2022/02/18 00:01:48;;;;;;;;;;;;;;;;;;996201;29;968;-43
2022/02/18 00:02:19;;;;;;;;;;;;;;;;;;997604;29;1138;-42
2022/02/18 00:02:49;;;;;;;;;;;;;;;;;;1000095;29;1007;-43
2022/02/18 00:03:19;;;;;;;;;;;;;;;;;;1000178;29;798;-42
2022/02/18 00:03:50;;;;;;;;;;;;;;;;;;1000062;29;1147;-42
2022/02/18 00:04:20;;;;;;;;;;;;;;;;;;1000061;29;940;-42
2022/02/18 00:04:52;;;;;;;;;;;;;;;;;;999922;29;944;-42
2022/02/18 00:05:22;;;;;;;;;;;;;;;;;;1000146;29;973;-42
2022/02/18 00:05:53;;;;;;;;;;;;;;;;;;1000131;29;864;-41
2022/02/18 00:06:23;;;;;;;;;;;;;;;;;;1000150;29;927;-42
2022/02/18 00:06:54;;;;;;;;;;;;;;;;;;1000018;29;928;-42
2022/02/18 00:07:24;;;;;;;;;;;;;;;;;;1000072;29;1143;-44
2022/02/18 00:07:55;;;;;;;;;;;;;;;;;;1000143;29;967;-41
2022/02/18 00:08:25;;;;;;;;;;;;;;;;;;999949;29;845;-41
2022/02/18 00:08:56;;;;;;;;;;;;;;;;;;1000160;29;922;-42
2022/02/18 00:09:27;;;;;;;;;;;;;;;;;;999948;29;1740;-42
2022/02/18 00:09:57;;;;;;;;;;;;;;;;;;1000152;29;994;-42
2022/02/18 00:10:27;;;;;;;;;;;;;;;;;;1000038;29;910;-42
2022/02/18 00:10:57;;;;;;;;;;;;;;;;;;1000055;29;904;-42
2022/02/18 00:11:28;;;;;;;;;;;;;;;;;;1000095;29;965;-42
2022/02/18 00:11:58;;;;;;;;;;;;;;;;;;1000118;29;911;-43
2022/02/18 00:12:29;;;;;;;;;;;;;;;;;;999990;29;864;-42
2022/02/18 00:12:59;;;;;;;;;;;;;;;;;;1000286;29;1002;-44
2022/02/18 00:13:30;;;;;;;;;;;;;;;;;;999906;29;888;-42
2022/02/18 00:14:01;;;;;;;;;;;;;;;;;;1000251;29;966;-44
2022/02/18 00:14:31;;;;;;;;;;;;;;;;;;999664;29;960;-42
2022/02/18 00:15:03;;;;;;;;;;;;;;;;;;1000219;29;796;-43
2022/02/18 00:15:33;;;;;;;;;;;;;;;;;;1000092;29;912;-42
2022/02/18 00:16:04;;;;;;;;;;;;;;;;;;1000004;29;912;-42
2022/02/18 00:16:34;;;;;;;;;;;;;;;;;;1000091;29;958;-43
2022/02/18 00:17:05;;;;;;;;;;;;;;;;;;1000069;29;916;-43
2022/02/18 00:17:36;;;;;;;;;;;;;;;;;;999924;29;1978;-43
2022/02/18 00:18:09;;;;;;;;;;;;;;;;;;1000146;29;977;-43
2022/02/18 00:18:40;;;;;;;;;;;;;;;;;;999880;29;1025;-43
2022/02/18 00:19:11;;;;;;;;;;;;;;;;;;1000076;29;886;-42
2022/02/18 00:19:41;;;;;;;;;;;;;;;;;;1000068;29;952;-43
2022/02/18 00:20:11;;;;;;;;;;;;;;;;;;1000010;29;888;-43
2022/02/18 00:20:42;;;;;;;;;;;;;;;;;;1000194;29;833;-42
2022/02/18 00:21:13;;;;;;;;;;;;;;;;;;999832;29;861;-45
2022/02/18 00:21:43;;;;;;;;;;;;;;;;;;1000130;29;1191;-43
2022/02/18 00:22:14;;;;;;;;;;;;;;;;;;1000037;29;955;-43
2022/02/18 00:22:44;;;;;;;;;;;;;;;;;;999981;29;900;-44
2022/02/18 00:23:14;;;;;;;;;;;;;;;;;;1000008;29;976;-42
2022/02/18 00:23:45;;;;;;;;;;;;;;;;;;1000000;29;856;-42
2022/02/18 00:24:16;;;;;;;;;;;;;;;;;;1000093;29;990;-44
2022/02/18 00:24:46;;;;;;;;;;;;;;;;;;999995;29;982;-43
2022/02/18 00:25:17;;;;;;;;;;;;;;;;;;999968;29;1199;-43
2022/02/18 00:25:49;;;;;;;;;;;;;;;;;;1000042;29;926;-43
2022/02/18 00:26:19;;;;;;;;;;;;;;;;;;999963;29;996;-43
2022/02/18 00:26:49;;;;;;;;;;;;;;;;;;1000020;29;958;-45
2022/02/18 00:27:19;;;;;;;;;;;;;;;;;;1000031;29;1018;-43
2022/02/18 00:27:50;;;;;;;;;;;;;;;;;;999898;29;809;-42
2022/02/18 00:28:21;;;;;;;;;;;;;;;;;;1000245;29;987;-43
2022/02/18 00:28:51;;;;;;;;;;;;;;;;;;995703;29;944;-50
2022/02/18 00:29:22;;;;;;;;;;;;;;;;;;992162;29;1476;-42
2022/02/18 00:29:55;;;;;;;;;;;;;;;;;;992182;29;878;-45
2022/02/18 00:30:25;;;;;;;;;;;;;;;;;;992616;29;948;-43
2022/02/18 00:30:56;;;;;;;;;;;;;;;;;;995886;29;951;-46
2022/02/18 00:31:26;;;;;;;;;;;;;;;;;;995963;29;928;-45
2022/02/18 00:31:58;;;;;;;;;;;;;;;;;;992195;29;863;-43
2022/02/18 00:32:28;;;;;;;;;;;;;;;;;;992523;29;999;-41
2022/02/18 00:32:59;;;;;;;;;;;;;;;;;;995860;29;869;-42
2022/02/18 00:33:29;;;;;;;;;;;;;;;;;;995937;29;952;-41
2022/02/18 00:34:00;;;;;;;;;;;;;;;;;;999997;29;987;-42
2022/02/18 00:34:30;;;;;;;;;;;;;;;;;;999878;29;1053;-42
2022/02/18 00:35:00;;;;;;;;;;;;;;;;;;1000039;29;1009;-42
2022/02/18 00:35:31;;;;;;;;;;;;;;;;;;999903;29;924;-42
2022/02/18 00:36:01;;;;;;;;;;;;;;;;;;995899;29;979;-42
2022/02/18 00:36:32;;;;;;;;;;;;;;;;;;995838;29;813;-42
2022/02/18 00:37:02;;;;;;;;;;;;;;;;;;995927;29;974;-42
2022/02/18 00:37:33;;;;;;;;;;;;;;;;;;995798;29;1899;-42
2022/02/18 00:38:05;;;;;;;;;;;;;;;;;;995848;29;1214;-42
2022/02/18 00:38:35;;;;;;;;;;;;;;;;;;995905;29;1314;-43
2022/02/18 00:39:05;;;;;;;;;;;;;;;;;;995874;29;944;-42
2022/02/18 00:39:37;;;;;;;;;;;;;;;;;;996001;29;946;-44
2022/02/18 00:40:07;;;;;;;;;;;;;;;;;;995949;29;917;-42
2022/02/18 00:40:38;;;;;;;;;;;;;;;;;;1000004;29;932;-43
2022/02/18 00:41:08;;;;;;;;;;;;;;;;;;999962;29;943;-43
2022/02/18 00:41:39;;;;;;;;;;;;;;;;;;1000040;29;931;-42
2022/02/18 00:42:09;;;;;;;;;;;;;;;;;;999963;29;970;-42
2022/02/18 00:42:39;;;;;;;;;;;;;;;;;;999936;29;913;-42
2022/02/18 00:43:11;;;;;;;;;;;;;;;;;;999940;29;838;-42
2022/02/18 00:43:43;;;;;;;;;;;;;;;;;;992140;29;932;-42
2022/02/18 00:44:14;;;;;;;;;;;;;;;;;;992097;29;949;-42
2022/02/18 00:44:46;;;;;;;;;;;;;;;;;;992228;29;794;-43
2022/02/18 00:45:18;;;;;;;;;;;;;;;;;;992784;29;872;-42
2022/02/18 00:45:48;;;;;;;;;;;;;;;;;;996043;29;972;-43
2022/02/18 00:46:19;;;;;;;;;;;;;;;;;;996314;29;956;-43
2022/02/18 00:46:50;;;;;;;;;;;;;;;;;;995947;29;856;-41
2022/02/18 00:47:21;;;;;;;;;;;;;;;;;;996475;29;873;-42
2022/02/18 00:47:51;;;;;;;;;;;;;;;;;;995972;29;1077;-42
2022/02/18 00:48:22;;;;;;;;;;;;;;;;;;992081;29;1185;-42
2022/02/18 00:48:52;;;;;;;;;;;;;;;;;;992077;29;951;-43
2022/02/18 00:49:23;;;;;;;;;;;;;;;;;;988323;30;1260;-42
2022/02/18 00:49:53;;;;;;;;;;;;;;;;;;988405;29;1238;-43
2022/02/18 00:50:23;;;;;;;;;;;;;;;;;;992170;29;899;-43
2022/02/18 00:50:55;;;;;;;;;;;;;;;;;;988240;29;1186;-42
2022/02/18 00:51:25;;;;;;;;;;;;;;;;;;992380;29;975;-42
2022/02/18 00:51:55;;;;;;;;;;;;;;;;;;991822;29;979;-42
2022/02/18 00:52:26;;;;;;;;;;;;;;;;;;992319;29;1391;-42
2022/02/18 00:52:57;;;;;;;;;;;;;;;;;;992093;29;983;-43
2022/02/18 00:53:27;;;;;;;;;;;;;;;;;;992082;29;718;-42
2022/02/18 00:53:58;;;;;;;;;;;;;;;;;;992292;29;928;-43
2022/02/18 00:54:28;;;;;;;;;;;;;;;;;;995573;29;900;-41
2022/02/18 00:54:58;;;;;;;;;;;;;;;;;;995928;29;1000;-42
2022/02/18 00:55:29;;;;;;;;;;;;;;;;;;996037;29;1136;-42
2022/02/18 00:55:59;;;;;;;;;;;;;;;;;;996006;29;785;-44
2022/02/18 00:56:32;;;;;;;;;;;;;;;;;;992175;29;1229;-42
2022/02/18 00:57:03;;;;;;;;;;;;;;;;;;991844;29;987;-43
2022/02/18 00:57:34;;;;;;;;;;;;;;;;;;992353;29;889;-42
2022/02/18 00:58:04;;;;;;;;;;;;;;;;;;992460;29;1069;-43
2022/02/18 00:58:35;;;;;;;;;;;;;;;;;;991971;29;901;-42
2022/02/18 00:59:06;;;;;;;;;;;;;;;;;;992191;29;889;-43
2022/02/18 00:59:36;;;;;;;;;;;;;;;;;;991855;29;1142;-43
2022/02/18 01:00:08;;;;;;;;;;;;;;;;;;992291;29;1035;-44
2022/02/18 01:00:38;;;;;;;;;;;;;;;;;;996047;29;992;-42
2022/02/18 01:01:08;;;;;;;;;;;;;;;;;;995510;29;956;-42
2022/02/18 01:01:39;;;;;;;;;;;;;;;;;;996299;29;953;-43
2022/02/18 01:02:09;;;;;;;;;;;;;;;;;;991705;29;1194;-42
2022/02/18 01:02:40;;;;;;;;;;;;;;;;;;992294;29;1146;-41
2022/02/18 01:03:11;;;;;;;;;;;;;;;;;;991964;29;1106;-41
2022/02/18 01:03:41;;;;;;;;;;;;;;;;;;992221;29;916;-41
2022/02/18 01:04:12;;;;;;;;;;;;;;;;;;995997;29;997;-41
2022/02/18 01:04:42;;;;;;;;;;;;;;;;;;999787;29;1186;-43
2022/02/18 01:05:13;;;;;;;;;;;;;;;;;;999807;29;920;-42
2022/02/18 01:05:47;;;;;;;;;;;;;;;;;;1000099;29;942;-42
2022/02/18 01:06:17;;;;;;;;;;;;;;;;;;995603;29;1161;-42
2022/02/18 01:06:48;;;;;;;;;;;;;;;;;;995996;29;1000;-42
2022/02/18 01:07:18;;;;;;;;;;;;;;;;;;995716;29;998;-42
2022/02/18 01:07:48;;;;;;;;;;;;;;;;;;995794;29;972;-42
2022/02/18 01:08:19;;;;;;;;;;;;;;;;;;1000024;29;838;-42
2022/02/18 01:08:50;;;;;;;;;;;;;;;;;;999738;29;944;-45
2022/02/18 01:09:22;;;;;;;;;;;;;;;;;;999966;29;946;-42
2022/02/18 01:09:54;;;;;;;;;;;;;;;;;;999729;29;982;-42
2022/02/18 01:10:25;;;;;;;;;;;;;;;;;;995711;29;1148;-42
2022/02/18 01:10:55;;;;;;;;;;;;;;;;;;995789;29;984;-43
2022/02/18 01:11:25;;;;;;;;;;;;;;;;;;995693;29;880;-43
2022/02/18 01:11:56;;;;;;;;;;;;;;;;;;992122;29;929;-41
2022/02/18 01:12:26;;;;;;;;;;;;;;;;;;991667;29;954;-41
2022/02/18 01:12:57;;;;;;;;;;;;;;;;;;995420;29;868;-42
2022/02/18 01:13:28;;;;;;;;;;;;;;;;;;995867;29;1017;-42
2022/02/18 01:13:58;;;;;;;;;;;;;;;;;;999838;29;971;-41
2022/02/18 01:14:29;;;;;;;;;;;;;;;;;;999774;29;948;-42
2022/02/18 01:14:59;;;;;;;;;;;;;;;;;;999786;29;970;-41
2022/02/18 01:15:30;;;;;;;;;;;;;;;;;;999793;29;955;-41
2022/02/18 01:16:00;;;;;;;;;;;;;;;;;;999897;29;924;-41
2022/02/18 01:16:32;;;;;;;;;;;;;;;;;;999808;29;805;-41
2022/02/18 01:17:03;;;;;;;;;;;;;;;;;;999904;29;1012;-41
2022/02/18 01:17:33;;;;;;;;;;;;;;;;;;999708;29;1064;-41
2022/02/18 01:18:04;;;;;;;;;;;;;;;;;;995677;29;2013;-42
2022/02/18 01:18:35;;;;;;;;;;;;;;;;;;995872;29;996;-41
2022/02/18 01:19:05;;;;;;;;;;;;;;;;;;992026;29;1174;-41
2022/02/18 01:19:35;;;;;;;;;;;;;;;;;;992183;29;931;-42
2022/02/18 01:20:08;;;;;;;;;;;;;;;;;;995673;29;1003;-41
2022/02/18 01:20:38;;;;;;;;;;;;;;;;;;996032;29;1850;-42
2022/02/18 01:21:09;;;;;;;;;;;;;;;;;;999770;29;900;-42
2022/02/18 01:21:39;;;;;;;;;;;;;;;;;;995596;29;1257;-42
2022/02/18 01:22:09;;;;;;;;;;;;;;;;;;995686;29;1278;-41
2022/02/18 01:22:40;;;;;;;;;;;;;;;;;;995820;29;997;-41
2022/02/18 01:23:10;;;;;;;;;;;;;;;;;;995744;29;1007;-41
2022/02/18 01:23:41;;;;;;;;;;;;;;;;;;995896;29;949;-42
2022/02/18 01:24:11;;;;;;;;;;;;;;;;;;999689;29;837;-43
2022/02/18 01:24:41;;;;;;;;;;;;;;;;;;999808;29;1081;-41
2022/02/18 01:25:12;;;;;;;;;;;;;;;;;;999645;29;926;-40
2022/02/18 01:25:43;;;;;;;;;;;;;;;;;;1000039;29;825;-42
2022/02/18 01:26:15;;;;;;;;;;;;;;;;;;999656;29;910;-42
2022/02/18 01:26:45;;;;;;;;;;;;;;;;;;999903;29;810;-41
2022/02/18 01:27:16;;;;;;;;;;;;;;;;;;995649;29;1145;-42
2022/02/18 01:27:47;;;;;;;;;;;;;;;;;;995662;29;892;-41
2022/02/18 01:28:18;;;;;;;;;;;;;;;;;;995777;29;980;-41
2022/02/18 01:28:48;;;;;;;;;;;;;;;;;;995993;29;1038;-41
2022/02/18 01:29:18;;;;;;;;;;;;;;;;;;999786;29;821;-41
2022/02/18 01:29:48;;;;;;;;;;;;;;;;;;999907;29;987;-41
2022/02/18 01:30:19;;;;;;;;;;;;;;;;;;999573;29;962;-41
2022/02/18 01:30:49;;;;;;;;;;;;;;;;;;995687;29;1450;-41
2022/02/18 01:31:20;;;;;;;;;;;;;;;;;;995809;29;915;-42
2022/02/18 01:31:52;;;;;;;;;;;;;;;;;;995687;29;806;-42
2022/02/18 01:32:22;;;;;;;;;;;;;;;;;;996164;29;977;-41
2022/02/18 01:32:53;;;;;;;;;;;;;;;;;;995570;29;1345;-41
2022/02/18 01:33:23;;;;;;;;;;;;;;;;;;992004;29;2353;-44
2022/02/18 01:33:55;;;;;;;;;;;;;;;;;;988208;30;1190;-44
2022/02/18 01:34:26;;;;;;;;;;;;;;;;;;988401;29;765;-42
2022/02/18 01:34:58;;;;;;;;;;;;;;;;;;992372;29;947;-42
2022/02/18 01:35:28;;;;;;;;;;;;;;;;;;992221;29;1430;-42
2022/02/18 01:35:58;;;;;;;;;;;;;;;;;;995851;29;825;-44
2022/02/18 01:36:29;;;;;;;;;;;;;;;;;;995758;29;1005;-43
2022/02/18 01:36:59;;;;;;;;;;;;;;;;;;995629;29;980;-42
2022/02/18 01:37:30;;;;;;;;;;;;;;;;;;999867;29;995;-42
2022/02/18 01:38:02;;;;;;;;;;;;;;;;;;999554;29;1915;-41
2022/02/18 01:38:32;;;;;;;;;;;;;;;;;;999770;29;975;-45
2022/02/18 01:39:05;;;;;;;;;;;;;;;;;;999944;29;930;-42
2022/02/18 01:39:36;;;;;;;;;;;;;;;;;;999684;29;865;-42
2022/02/18 01:40:07;;;;;;;;;;;;;;;;;;999827;29;947;-42
2022/02/18 01:40:38;;;;;;;;;;;;;;;;;;999723;29;934;-42
2022/02/18 01:41:11;;;;;;;;;;;;;;;;;;999586;29;932;-41
2022/02/18 01:41:41;;;;;;;;;;;;;;;;;;1000031;29;975;-45
2022/02/18 01:42:11;;;;;;;;;;;;;;;;;;995345;29;1037;-39
2022/02/18 01:42:43;;;;;;;;;;;;;;;;;;995913;29;801;-42
2022/02/18 01:43:13;;;;;;;;;;;;;;;;;;995629;29;1118;-41
2022/02/18 01:43:54;;;;;;;;;;;;;;;;;;995933;29;963;-42
2022/02/18 01:44:32;;;;;;;;;;;;;;;;;;999984;29;845;-41
2022/02/18 01:45:03;;;;;;;;;;;;;;;;;;999759;29;946;-42
2022/02/18 01:45:33;;;;;;;;;;;;;;;;;;995645;29;1180;-42
2022/02/18 01:46:04;;;;;;;;;;;;;;;;;;995738;29;986;-42
2022/02/18 01:46:34;;;;;;;;;;;;;;;;;;995685;29;1033;-41
2022/02/18 01:47:10;;;;;;;;;;;;;;;;;;995754;29;974;-42
2022/02/18 01:47:40;;;;;;;;;;;;;;;;;;995833;29;1052;-42
2022/02/18 01:48:11;;;;;;;;;;;;;;;;;;995526;29;1282;-40
2022/02/18 01:48:41;;;;;;;;;;;;;;;;;;999532;29;1468;-42
2022/02/18 01:49:11;;;;;;;;;;;;;;;;;;999329;29;970;-41
2022/02/18 01:49:43;;;;;;;;;;;;;;;;;;1003274;29;912;-42
2022/02/18 01:50:14;;;;;;;;;;;;;;;;;;1003039;29;931;-41
2022/02/18 01:50:44;;;;;;;;;;;;;;;;;;995564;29;999;-40
2022/02/18 01:51:18;;;;;;;;;;;;;;;;;;995641;29;956;-45
2022/02/18 01:51:48;;;;;;;;;;;;;;;;;;999314;29;2205;-41
2022/02/18 01:52:19;;;;;;;;;;;;;;;;;;999899;29;839;-41
2022/02/18 01:52:51;;;;;;;;;;;;;;;;;;1003276;29;972;-41
2022/02/18 01:53:21;;;;;;;;;;;;;;;;;;1002908;29;882;-41
2022/02/18 01:53:52;;;;;;;;;;;;;;;;;;999828;29;808;-40
2022/02/18 01:54:22;;;;;;;;;;;;;;;;;;999791;29;911;-43
2022/02/18 01:54:53;;;;;;;;;;;;;;;;;;999594;29;928;-42
2022/02/18 01:55:24;;;;;;;;;;;;;;;;;;999564;29;1373;-42
2022/02/18 01:55:55;;;;;;;;;;;;;;;;;;999539;29;910;-43
2022/02/18 01:56:25;;;;;;;;;;;;;;;;;;995645;29;1390;-41
2022/02/18 01:56:56;;;;;;;;;;;;;;;;;;995656;29;1318;-43
2022/02/18 01:57:28;;;;;;;;;;;;;;;;;;995451;29;1272;-44
2022/02/18 01:57:59;;;;;;;;;;;;;;;;;;991913;29;2040;-42
2022/02/18 01:58:30;;;;;;;;;;;;;;;;;;991749;29;919;-42
2022/02/18 01:59:01;;;;;;;;;;;;;;;;;;992309;29;885;-41
2022/02/18 01:59:31;;;;;;;;;;;;;;;;;;995978;29;1175;-41
2022/02/18 02:00:02;;;;;;;;;;;;;;;;;;999665;29;951;-41
2022/02/18 02:00:44;;;;;;;;;;;;;;;;;;999730;29;681;-42
2022/02/18 02:01:15;;;;;;;;;;;;;;;;;;999759;29;946;-42
2022/02/18 02:01:45;;;;;;;;;;;;;;;;;;999626;29;1078;-42
2022/02/18 02:02:15;;;;;;;;;;;;;;;;;;999689;29;1104;-42
2022/02/18 02:02:47;;;;;;;;;;;;;;;;;;999647;29;883;-42
2022/02/18 02:03:18;;;;;;;;;;;;;;;;;;999740;29;970;-43
2022/02/18 02:03:48;;;;;;;;;;;;;;;;;;999616;29;998;-42
2022/02/18 02:04:22;;;;;;;;;;;;;;;;;;995410;29;1746;-42
2022/02/18 02:04:56;;;;;;;;;;;;;;;;;;995570;29;1319;-42
2022/02/18 02:05:27;;;;;;;;;;;;;;;;;;995680;29;922;-45
2022/02/18 02:05:59;;;;;;;;;;;;;;;;;;995571;29;868;-41
2022/02/18 02:06:30;;;;;;;;;;;;;;;;;;991830;29;1261;-42
2022/02/18 02:07:05;;;;;;;;;;;;;;;;;;988427;29;887;-42
2022/02/18 02:07:38;;;;;;;;;;;;;;;;;;991881;29;861;-42
2022/02/18 02:08:10;;;;;;;;;;;;;;;;;;989079;29;1237;-41
2022/02/18 02:08:45;;;;;;;;;;;;;;;;;;995540;29;1417;-41
2022/02/18 02:09:16;;;;;;;;;;;;;;;;;;991733;29;1470;-42
2022/02/18 02:09:46;;;;;;;;;;;;;;;;;;988160;30;1182;-42
2022/02/18 02:10:17;;;;;;;;;;;;;;;;;;988025;29;931;-41
2022/02/18 02:10:48;;;;;;;;;;;;;;;;;;988366;29;1174;-42
2022/02/18 02:11:23;;;;;;;;;;;;;;;;;;991719;29;963;-42
2022/02/18 02:11:53;;;;;;;;;;;;;;;;;;991748;29;947;-43
2022/02/18 02:12:23;;;;;;;;;;;;;;;;;;992029;29;1183;-44
2022/02/18 02:12:57;;;;;;;;;;;;;;;;;;995594;29;1312;-42
2022/02/18 02:13:40;;;;;;;;;;;;;;;;;;995485;29;1492;-42
2022/02/18 02:14:14;;;;;;;;;;;;;;;;;;993299;29;1285;-42
2022/02/18 02:14:46;;;;;;;;;;;;;;;;;;991633;29;1366;-42
2022/02/18 02:15:18;;;;;;;;;;;;;;;;;;992832;29;1209;-43
2022/02/18 02:15:48;;;;;;;;;;;;;;;;;;991855;29;1213;-41
2022/02/18 02:16:22;;;;;;;;;;;;;;;;;;987857;30;1208;-43
2022/02/18 02:16:53;;;;;;;;;;;;;;;;;;985010;30;1230;-44
2022/02/18 02:17:25;;;;;;;;;;;;;;;;;;984991;30;1198;-42
2022/02/18 02:17:59;;;;;;;;;;;;;;;;;;984736;30;1908;-42
2022/02/18 02:18:30;;;;;;;;;;;;;;;;;;988936;29;813;-42
2022/02/18 02:19:00;;;;;;;;;;;;;;;;;;988526;29;1355;-42
2022/02/18 02:19:30;;;;;;;;;;;;;;;;;;992217;29;774;-43
2022/02/18 02:20:05;;;;;;;;;;;;;;;;;;995606;29;1153;-42
2022/02/18 02:20:36;;;;;;;;;;;;;;;;;;995403;29;1299;-41
2022/02/18 02:21:09;;;;;;;;;;;;;;;;;;991797;29;1428;-41
2022/02/18 02:21:49;;;;;;;;;;;;;;;;;;991561;29;1290;-42
2022/02/18 02:22:23;;;;;;;;;;;;;;;;;;991704;29;1216;-42
2022/02/18 02:22:54;;;;;;;;;;;;;;;;;;991685;29;881;-42
2022/02/18 02:23:25;;;;;;;;;;;;;;;;;;992900;29;1189;-42
2022/02/18 02:23:55;;;;;;;;;;;;;;;;;;992081;29;1308;-42
2022/02/18 02:24:32;;;;;;;;;;;;;;;;;;995241;29;1291;-43
2022/02/18 02:25:03;;;;;;;;;;;;;;;;;;995509;29;1137;-43
2022/02/18 02:25:35;;;;;;;;;;;;;;;;;;991484;29;1306;-42
2022/02/18 02:26:10;;;;;;;;;;;;;;;;;;988230;29;1379;-43
2022/02/18 02:26:41;;;;;;;;;;;;;;;;;;985082;29;1331;-42
2022/02/18 02:27:12;;;;;;;;;;;;;;;;;;988686;29;933;-42
2022/02/18 02:27:42;;;;;;;;;;;;;;;;;;988215;29;1142;-41
2022/02/18 02:28:14;;;;;;;;;;;;;;;;;;988109;29;1702;-42
2022/02/18 02:28:45;;;;;;;;;;;;;;;;;;988041;29;1456;-43
2022/02/18 02:29:16;;;;;;;;;;;;;;;;;;984734;30;1225;-42
2022/02/18 02:29:49;;;;;;;;;;;;;;;;;;984726;30;1207;-42
2022/02/18 02:30:21;;;;;;;;;;;;;;;;;;988787;29;1292;-43
2022/02/18 02:30:56;;;;;;;;;;;;;;;;;;992691;29;1203;-42
2022/02/18 02:31:26;;;;;;;;;;;;;;;;;;991723;29;1358;-42
2022/02/18 02:31:58;;;;;;;;;;;;;;;;;;988102;29;1489;-42
2022/02/18 02:32:29;;;;;;;;;;;;;;;;;;991834;29;1274;-42
2022/02/18 02:32:59;;;;;;;;;;;;;;;;;;991806;29;1287;-42
2022/02/18 02:33:36;;;;;;;;;;;;;;;;;;988043;30;1468;-41
2022/02/18 02:34:07;;;;;;;;;;;;;;;;;;988013;30;1205;-42
2022/02/18 02:34:40;;;;;;;;;;;;;;;;;;989109;29;1185;-42
2022/02/18 02:35:11;;;;;;;;;;;;;;;;;;991818;29;1113;-44
2022/02/18 02:35:44;;;;;;;;;;;;;;;;;;988546;29;1116;-44
2022/02/18 02:36:15;;;;;;;;;;;;;;;;;;988635;29;1205;-43
2022/02/18 02:36:48;;;;;;;;;;;;;;;;;;987897;30;1346;-41
2022/02/18 02:37:20;;;;;;;;;;;;;;;;;;988657;29;1257;-42
2022/02/18 02:37:52;;;;;;;;;;;;;;;;;;988651;29;2060;-43
2022/02/18 02:38:27;;;;;;;;;;;;;;;;;;991680;29;937;-43
2022/02/18 02:38:59;;;;;;;;;;;;;;;;;;991681;29;1547;-44
2022/02/18 02:39:31;;;;;;;;;;;;;;;;;;988988;29;1532;-42
2022/02/18 02:40:04;;;;;;;;;;;;;;;;;;987840;30;1360;-41
2022/02/18 02:40:42;;;;;;;;;;;;;;;;;;985747;30;1119;-42
2022/02/18 02:41:14;;;;;;;;;;;;;;;;;;989896;29;1189;-43
2022/02/18 02:41:44;;;;;;;;;;;;;;;;;;992734;29;869;-42
2022/02/18 02:42:17;;;;;;;;;;;;;;;;;;995763;29;1123;-42
2022/02/18 02:42:54;;;;;;;;;;;;;;;;;;992849;29;1223;-42
2022/02/18 02:43:25;;;;;;;;;;;;;;;;;;995406;29;1233;-42
2022/02/18 02:43:56;;;;;;;;;;;;;;;;;;995489;29;1106;-42
2022/02/18 02:44:27;;;;;;;;;;;;;;;;;;998983;29;1340;-42
2022/02/18 02:45:06;;;;;;;;;;;;;;;;;;996656;29;1237;-41
2022/02/18 02:45:36;;;;;;;;;;;;;;;;;;995672;29;2337;-42
2022/02/18 02:46:08;;;;;;;;;;;;;;;;;;993805;29;912;-42
2022/02/18 02:46:39;;;;;;;;;;;;;;;;;;995553;29;1338;-41
2022/02/18 02:47:23;;;;;;;;;;;;;;;;;;993784;29;1456;-42
2022/02/18 02:47:59;;;;;;;;;;;;;;;;;;994092;29;1286;-41
2022/02/18 02:48:48;;;;;;;;;;;;;;;;;;987816;30;1354;-41
2022/02/18 02:49:31;;;;;;;;;;;;;;;;;;991764;29;1233;-42
2022/02/18 02:50:01;;;;;;;;;;;;;;;;;;991647;29;1503;-41
2022/02/18 02:50:33;;;;;;;;;;;;;;;;;;995573;29;1240;-43
2022/02/18 02:51:07;;;;;;;;;;;;;;;;;;995280;29;1334;-42
2022/02/18 02:51:38;;;;;;;;;;;;;;;;;;996413;29;1003;-41
2022/02/18 02:52:09;;;;;;;;;;;;;;;;;;994675;29;1177;-42
2022/02/18 02:52:39;;;;;;;;;;;;;;;;;;988097;29;1585;-41
2022/02/18 02:53:12;;;;;;;;;;;;;;;;;;991962;29;1068;-44
2022/02/18 02:53:43;;;;;;;;;;;;;;;;;;995699;29;1204;-41
2022/02/18 02:54:13;;;;;;;;;;;;;;;;;;999616;29;1045;-41
2022/02/18 02:54:44;;;;;;;;;;;;;;;;;;1002806;29;920;-42
2022/02/18 02:55:17;;;;;;;;;;;;;;;;;;998614;29;1216;-42
2022/02/18 02:55:48;;;;;;;;;;;;;;;;;;995577;29;874;-42
2022/02/18 02:56:19;;;;;;;;;;;;;;;;;;995382;29;1281;-42
2022/02/18 02:56:52;;;;;;;;;;;;;;;;;;995444;29;1408;-41
2022/02/18 02:57:32;;;;;;;;;;;;;;;;;;991894;29;1237;-42
2022/02/18 02:58:02;;;;;;;;;;;;;;;;;;991235;29;1904;-40
2022/02/18 02:58:33;;;;;;;;;;;;;;;;;;991891;29;1479;-44
2022/02/18 02:59:06;;;;;;;;;;;;;;;;;;995378;29;1178;-41
2022/02/18 02:59:43;;;;;;;;;;;;;;;;;;992941;29;1405;-42
2022/02/18 03:00:14;;;;;;;;;;;;;;;;;;992936;29;1138;-42
2022/02/18 03:00:46;;;;;;;;;;;;;;;;;;990356;29;1511;-43
2022/02/18 03:01:28;;;;;;;;;;;;;;;;;;989520;29;1215;-42
2022/02/18 03:01:59;;;;;;;;;;;;;;;;;;993383;29;1261;-42
2022/02/18 03:02:29;;;;;;;;;;;;;;;;;;989075;29;1358;-43
2022/02/18 03:03:00;;;;;;;;;;;;;;;;;;987882;29;1134;-43
2022/02/18 03:03:53;;;;;;;;;;;;;;;;;;994345;29;1336;-41
2022/02/18 03:04:25;;;;;;;;;;;;;;;;;;991769;29;1244;-42
2022/02/18 03:04:57;;;;;;;;;;;;;;;;;;990964;29;1392;-43
2022/02/18 03:05:27;;;;;;;;;;;;;;;;;;987953;30;1146;-43
2022/02/18 03:06:02;;;;;;;;;;;;;;;;;;985063;30;1262;-42
2022/02/18 03:06:34;;;;;;;;;;;;;;;;;;984902;30;1201;-45
2022/02/18 03:07:05;;;;;;;;;;;;;;;;;;988615;29;1375;-42
2022/02/18 03:07:35;;;;;;;;;;;;;;;;;;992031;29;1103;-42
2022/02/18 03:08:12;;;;;;;;;;;;;;;;;;991572;29;1233;-42
2022/02/18 03:08:43;;;;;;;;;;;;;;;;;;988955;29;1321;-42
2022/02/18 03:09:26;;;;;;;;;;;;;;;;;;991716;29;1415;-42
2022/02/18 03:10:10;;;;;;;;;;;;;;;;;;995067;29;1496;-44
2022/02/18 03:10:41;;;;;;;;;;;;;;;;;;991490;29;1204;-43
2022/02/18 03:11:17;;;;;;;;;;;;;;;;;;987953;30;1358;-42
2022/02/18 03:12:13;;;;;;;;;;;;;;;;;;988108;29;1093;-44
2022/02/18 03:12:46;;;;;;;;;;;;;;;;;;991875;29;919;-42
2022/02/18 03:13:18;;;;;;;;;;;;;;;;;;991405;29;1213;-45
2022/02/18 03:13:53;;;;;;;;;;;;;;;;;;989053;29;1354;-43
2022/02/18 03:14:25;;;;;;;;;;;;;;;;;;991664;29;1327;-43
2022/02/18 03:15:01;;;;;;;;;;;;;;;;;;992927;29;806;-44
2022/02/18 03:15:36;;;;;;;;;;;;;;;;;;991903;29;1381;-43
2022/02/18 03:16:15;;;;;;;;;;;;;;;;;;990394;29;925;-42
2022/02/18 03:16:47;;;;;;;;;;;;;;;;;;987826;30;1386;-43
2022/02/18 03:17:17;;;;;;;;;;;;;;;;;;989347;29;991;-43
2022/02/18 03:17:48;;;;;;;;;;;;;;;;;;991773;29;1936;-44
2022/02/18 03:18:29;;;;;;;;;;;;;;;;;;995392;29;1577;-41
2022/02/18 03:19:01;;;;;;;;;;;;;;;;;;991552;29;1205;-42
2022/02/18 03:19:31;;;;;;;;;;;;;;;;;;991697;29;1253;-41
2022/02/18 03:20:06;;;;;;;;;;;;;;;;;;992149;29;1374;-42
2022/02/18 03:20:39;;;;;;;;;;;;;;;;;;990615;29;1339;-43
2022/02/18 03:21:10;;;;;;;;;;;;;;;;;;988925;29;1038;-42
2022/02/18 03:21:41;;;;;;;;;;;;;;;;;;992135;29;1299;-42
2022/02/18 03:22:12;;;;;;;;;;;;;;;;;;995490;29;1581;-43
2022/02/18 03:22:43;;;;;;;;;;;;;;;;;;991687;29;825;-44
2022/02/18 03:23:14;;;;;;;;;;;;;;;;;;991623;29;1395;-44
2022/02/18 03:23:46;;;;;;;;;;;;;;;;;;991720;29;1050;-43
2022/02/18 03:24:17;;;;;;;;;;;;;;;;;;991798;29;980;-43
2022/02/18 03:24:50;;;;;;;;;;;;;;;;;;995504;29;1500;-43
2022/02/18 03:25:22;;;;;;;;;;;;;;;;;;991456;29;1000;-44
2022/02/18 03:25:54;;;;;;;;;;;;;;;;;;990842;29;1311;-42
2022/02/18 03:26:24;;;;;;;;;;;;;;;;;;988376;29;1170;-43
2022/02/18 03:27:06;;;;;;;;;;;;;;;;;;987652;29;1209;-42
2022/02/18 03:27:42;;;;;;;;;;;;;;;;;;990008;29;1209;-42
2022/02/18 03:28:14;;;;;;;;;;;;;;;;;;994121;29;1485;-42
2022/02/18 03:28:44;;;;;;;;;;;;;;;;;;992335;29;1343;-43
2022/02/18 03:29:34;;;;;;;;;;;;;;;;;;988898;29;1520;-43
2022/02/18 03:30:07;;;;;;;;;;;;;;;;;;990606;29;810;-43
2022/02/18 03:30:39;;;;;;;;;;;;;;;;;;990911;29;1380;-42
2022/02/18 03:31:10;;;;;;;;;;;;;;;;;;988358;29;1438;-42
2022/02/18 03:31:41;;;;;;;;;;;;;;;;;;991733;29;1555;-42
2022/02/18 03:32:12;;;;;;;;;;;;;;;;;;991732;29;954;-41
2022/02/18 03:32:42;;;;;;;;;;;;;;;;;;991546;29;1334;-42
2022/02/18 03:33:13;;;;;;;;;;;;;;;;;;991774;29;1810;-42
2022/02/18 03:33:44;;;;;;;;;;;;;;;;;;991573;29;1489;-44
2022/02/18 03:34:15;;;;;;;;;;;;;;;;;;991561;29;1314;-41
2022/02/18 03:34:45;;;;;;;;;;;;;;;;;;987933;29;1596;-41
2022/02/18 03:35:16;;;;;;;;;;;;;;;;;;991633;29;945;-41
2022/02/18 03:35:49;;;;;;;;;;;;;;;;;;992160;29;872;-42
2022/02/18 03:36:19;;;;;;;;;;;;;;;;;;992475;29;1399;-43
2022/02/18 03:36:49;;;;;;;;;;;;;;;;;;992427;29;1515;-41
2022/02/18 03:37:22;;;;;;;;;;;;;;;;;;992315;29;1334;-42
2022/02/18 03:37:54;;;;;;;;;;;;;;;;;;989153;29;1981;-41
2022/02/18 03:38:32;;;;;;;;;;;;;;;;;;993823;29;960;-42
2022/02/18 03:39:03;;;;;;;;;;;;;;;;;;992190;29;1150;-42
2022/02/18 03:39:34;;;;;;;;;;;;;;;;;;989755;29;1707;-41
2022/02/18 03:40:05;;;;;;;;;;;;;;;;;;992167;29;1189;-42
2022/02/18 03:40:36;;;;;;;;;;;;;;;;;;992256;29;1331;-42
2022/02/18 03:41:06;;;;;;;;;;;;;;;;;;988618;30;1225;-41
2022/02/18 03:41:37;;;;;;;;;;;;;;;;;;984899;30;1131;-42
2022/02/18 03:42:07;;;;;;;;;;;;;;;;;;984871;30;1433;-41
2022/02/18 03:42:39;;;;;;;;;;;;;;;;;;988722;29;1244;-41
2022/02/18 03:43:10;;;;;;;;;;;;;;;;;;988563;29;1456;-42
2022/02/18 03:43:57;;;;;;;;;;;;;;;;;;988477;29;1247;-42
2022/02/18 03:44:34;;;;;;;;;;;;;;;;;;984848;30;1308;-41
2022/02/18 03:45:11;;;;;;;;;;;;;;;;;;988727;30;1347;-40
2022/02/18 03:45:41;;;;;;;;;;;;;;;;;;986266;30;1613;-42
2022/02/18 03:46:25;;;;;;;;;;;;;;;;;;987444;30;1494;-41
2022/02/18 03:46:58;;;;;;;;;;;;;;;;;;988443;30;1516;-41